createdAt,value
2023-09-10T00:01:12.280Z,13.7
2023-09-10T00:03:15.407Z,15.6
2023-09-10T00:05:14.675Z,14.1
2023-09-10T00:07:14.166Z,13.3
2023-09-10T00:09:13.658Z,13.6
2023-09-10T00:11:13.211Z,13.7
2023-09-10T00:13:12.649Z,12.9
2023-09-10T00:15:12.163Z,13
2023-09-10T00:17:15.098Z,14.8
2023-09-10T00:19:14.567Z,14.2
2023-09-10T00:21:14.057Z,13.8
2023-09-10T00:22:15.506Z,14.6
2023-09-10T00:26:14.539Z,13.7
2023-09-10T00:28:14.005Z,12.7
2023-09-10T00:30:16.912Z,13.6
2023-09-10T00:34:17.502Z,13.8
2023-09-10T00:38:16.543Z,13.6
2023-09-10T00:40:15.988Z,14.3
2023-09-10T00:44:18.422Z,13.7
2023-09-10T00:48:17.442Z,13.6
2023-09-10T01:00:17.971Z,14.5
2023-09-10T01:04:16.950Z,15.4
2023-09-10T01:08:16.054Z,14.8
2023-09-10T01:17:19.202Z,16.2
2023-09-10T01:19:18.463Z,15.5
2023-09-10T01:21:18.031Z,15.4
2023-09-10T01:23:17.553Z,14.5
2023-09-10T01:25:20.431Z,17.1
2023-09-10T01:27:19.930Z,16.1
2023-09-10T01:29:19.494Z,13.4
2023-09-10T01:31:19.157Z,14.6
2023-09-10T01:33:18.462Z,13.6
2023-09-10T01:35:17.996Z,15.2
2023-09-10T01:37:17.463Z,14.7
2023-09-10T01:39:20.481Z,15.3
2023-09-10T01:41:19.936Z,13.6
2023-09-10T01:43:19.437Z,15.1
2023-09-10T01:45:18.977Z,15.6
2023-09-10T01:49:17.995Z,14
2023-09-10T01:51:17.470Z,14.4
2023-09-10T01:53:20.454Z,17.5
2023-09-10T01:55:20.012Z,14.5
2023-09-10T01:57:19.493Z,16
2023-09-10T02:07:20.470Z,16.9
2023-09-10T02:09:19.968Z,15.4
2023-09-10T02:14:20.483Z,16.4
2023-09-10T02:16:20.020Z,14.8
2023-09-10T02:18:19.601Z,13.9
2023-09-10T02:20:22.486Z,16.9
2023-09-10T02:22:21.979Z,14.5
2023-09-10T02:24:21.476Z,14.7
2023-09-10T02:28:20.549Z,14.3
2023-09-10T02:42:20.617Z,14.5
2023-09-10T02:44:20.118Z,14.1
2023-09-10T02:46:19.695Z,14.8
2023-09-10T02:48:22.638Z,16.3
2023-09-10T02:50:22.176Z,15.9
2023-09-10T02:52:21.661Z,15.9
2023-09-10T02:54:21.206Z,15.6
2023-09-10T02:56:20.750Z,16.2
2023-09-10T02:58:20.231Z,15.8
2023-09-10T03:02:22.850Z,15.8
2023-09-10T03:04:22.262Z,15.6
2023-09-10T03:06:21.830Z,16.3
2023-09-10T03:08:43.253Z,18.4
2023-09-10T03:12:42.287Z,16.2
2023-09-10T03:14:45.219Z,16.8
2023-09-10T03:16:44.772Z,14.5
2023-09-10T03:18:44.282Z,15.6
2023-09-10T03:20:43.942Z,14.6
2023-09-10T03:22:43.379Z,13
2023-09-10T03:24:42.792Z,13.6
2023-09-10T03:26:42.346Z,14.4
2023-09-10T03:28:45.281Z,16.2
2023-09-10T03:30:44.767Z,15.1
2023-09-10T03:34:43.838Z,13.5
2023-09-10T03:38:42.885Z,13.8
2023-09-10T03:52:42.993Z,12.7
2023-09-10T03:56:45.509Z,14.7
2023-09-10T03:58:45.040Z,12.9
2023-09-10T04:01:46.069Z,15.2
2023-09-10T04:05:45.081Z,13.2
2023-09-10T04:11:47.103Z,14.5
2023-09-10T04:13:46.711Z,13.5
2023-09-10T04:15:46.171Z,13
2023-09-10T04:17:45.793Z,13.4
2023-09-10T04:19:45.295Z,13.9
2023-09-10T04:21:44.749Z,12.1
2023-09-10T04:23:47.723Z,13.8
2023-09-10T04:25:47.287Z,13.1
2023-09-10T04:27:46.788Z,12.8
2023-09-10T04:29:46.308Z,13.3
2023-09-10T04:33:45.394Z,12.8
2023-09-10T04:35:44.929Z,13.3
2023-09-10T04:37:47.927Z,14.2
2023-09-10T04:39:47.432Z,13.3
2023-09-10T04:41:46.956Z,14.6
2023-09-10T04:43:46.517Z,13.4
2023-09-10T04:45:46.027Z,13.1
2023-09-10T04:53:47.584Z,12.6
2023-09-10T04:55:47.177Z,13.8
2023-09-10T04:56:48.625Z,15.4
2023-09-10T04:58:48.156Z,13.9
2023-09-10T05:00:47.835Z,12.7
2023-09-10T05:02:48.503Z,14.2
2023-09-10T05:04:50.194Z,15.7
2023-09-10T05:06:49.704Z,13.9
2023-09-10T05:08:49.255Z,12.6
2023-09-10T05:12:48.298Z,12.7
2023-09-10T05:14:47.857Z,13.9
2023-09-10T05:16:47.533Z,15.5
2023-09-10T05:18:50.337Z,16.1
2023-09-10T05:20:50.040Z,13.7
2023-09-10T05:22:49.457Z,14.9
2023-09-10T05:24:48.933Z,14.3
2023-09-10T05:28:48.301Z,15.2
2023-09-10T05:30:47.612Z,14.8
2023-09-10T05:32:50.669Z,17
2023-09-10T05:34:50.077Z,17
2023-09-10T05:40:48.650Z,17.1
2023-09-10T05:50:49.716Z,17
2023-09-10T05:51:51.217Z,19.4
2023-09-10T06:05:51.324Z,20.4
2023-09-10T06:13:52.893Z,23.3
2023-09-10T06:19:51.388Z,21.6
2023-09-10T06:21:52.432Z,21.7
2023-09-10T06:23:51.875Z,20.3
2023-09-10T06:25:51.429Z,22.9
2023-09-10T06:27:54.330Z,22.8
2023-09-10T06:29:53.817Z,21.8
2023-09-10T06:31:53.470Z,23.8
2023-09-10T06:33:52.836Z,24.7
2023-09-10T06:35:52.323Z,25.3
2023-09-10T06:37:51.863Z,28.1
2023-09-10T06:39:51.367Z,33.8
2023-09-10T06:41:54.189Z,41.2
2023-09-10T06:43:53.677Z,38.9
2023-09-10T06:45:53.194Z,38.6
2023-09-10T06:48:08.780Z,43.9
2023-09-10T06:50:08.225Z,35.9
2023-09-10T06:52:07.622Z,36.2
2023-09-10T06:54:10.537Z,38.3
2023-09-10T06:56:10.027Z,35.9
2023-09-10T06:58:09.492Z,35.2
2023-09-10T07:00:08.936Z,36.2
2023-09-10T07:02:08.438Z,35.4
2023-09-10T07:04:07.862Z,33.1
2023-09-10T07:26:07.733Z,21.7
2023-09-10T07:32:05.798Z,17.6
2023-09-10T07:34:04.978Z,16.8
2023-09-10T07:36:07.609Z,18.8
2023-09-10T07:40:06.180Z,16.3
2023-09-10T07:41:07.485Z,16.5
2023-09-10T07:43:06.717Z,16
2023-09-10T07:47:05.221Z,14.7
2023-09-10T07:49:07.794Z,14
2023-09-10T07:51:07.020Z,13.7
2023-09-10T07:53:06.223Z,14.3
2023-09-10T07:57:04.613Z,13.9
2023-09-10T07:59:03.809Z,14.4
2023-09-10T08:01:02.992Z,12.7
2023-09-10T08:03:05.515Z,14.2
2023-09-10T08:05:04.633Z,13.4
2023-09-10T08:07:03.777Z,13.3
2023-09-10T08:11:02.177Z,12.6
2023-09-10T08:13:01.217Z,11.9
2023-09-10T08:15:00.479Z,13.7
2023-09-10T08:17:02.886Z,12.4
2023-09-10T08:35:59.556Z,11.5
2023-09-10T08:37:58.683Z,13.3
2023-09-10T08:39:57.774Z,11
2023-09-10T08:41:56.887Z,13.1
2023-09-10T08:43:59.517Z,12.6
2023-09-10T08:51:55.737Z,11.6
2023-09-10T08:53:54.806Z,11
2023-09-10T08:59:55.444Z,9.8
2023-09-10T09:03:53.637Z,10
2023-09-10T09:05:52.682Z,10.7
2023-09-10T09:07:51.888Z,10.8
2023-09-10T09:09:50.857Z,10
2023-09-10T09:13:52.385Z,10.6
2023-09-10T09:15:51.401Z,9.2
2023-09-10T09:17:53.066Z,9.8
2023-09-10T09:21:48.449Z,9.2
2023-09-10T09:29:47.620Z,8.9
2023-09-10T09:30:48.810Z,8.5
2023-09-10T09:32:47.656Z,7.8
2023-09-10T09:34:46.474Z,7.6
2023-09-10T09:36:45.284Z,8.1
2023-09-10T09:38:47.475Z,8.3
2023-09-10T09:40:46.242Z,7.5
2023-09-10T09:42:44.981Z,7.1
2023-09-10T09:44:43.701Z,7.3
2023-09-10T09:50:39.592Z,8.4
2023-09-10T09:52:41.432Z,8
2023-09-10T09:54:39.936Z,8.2
2023-09-10T09:56:38.459Z,8
2023-09-10T09:58:36.936Z,7.3
2023-09-10T10:00:37.654Z,8.2
2023-09-10T10:02:33.937Z,7.5
2023-09-10T10:04:32.329Z,8.8
2023-09-10T10:06:42.845Z,8
2023-09-10T10:08:32.516Z,7.3
2023-09-10T10:10:30.890Z,7.7
2023-09-10T10:12:29.286Z,6.6
2023-09-10T10:16:26.167Z,7.5
2023-09-10T10:18:24.479Z,7.2
2023-09-10T10:34:33.367Z,6.5
2023-09-10T10:40:28.140Z,5.6
2023-09-10T10:46:26.196Z,5.8
2023-09-10T10:48:24.416Z,6.1
2023-09-10T10:50:22.704Z,5.5
2023-09-10T10:54:19.028Z,5.8
2023-09-10T10:58:15.426Z,6.1
2023-09-10T11:00:16.972Z,4.8
2023-09-10T11:04:13.347Z,6.1
2023-09-10T11:08:09.734Z,4.7
2023-09-10T11:19:04.533Z,5.7
2023-09-10T11:21:02.794Z,5.2
2023-09-10T11:23:00.796Z,4.5
2023-09-10T11:24:58.924Z,4.8
2023-09-10T11:27:00.418Z,4.1
2023-09-10T11:28:58.548Z,4.9
2023-09-10T11:30:56.655Z,4.5
2023-09-10T11:36:51.007Z,5.3
2023-09-10T11:38:49.174Z,5.3
2023-09-10T11:40:50.647Z,6.2
2023-09-10T11:44:46.890Z,4.7
2023-09-10T11:46:47.130Z,4.3
2023-09-10T11:50:41.300Z,5.3
2023-09-10T11:58:37.193Z,5.8
2023-09-10T12:00:35.312Z,4.8
2023-09-10T12:04:33.089Z,4.7
2023-09-10T12:06:31.188Z,4.7
2023-09-10T12:08:32.722Z,4.8
2023-09-10T12:10:30.877Z,4.8
2023-09-10T12:12:28.940Z,5.5
2023-09-10T12:13:29.702Z,4.6
2023-09-10T12:15:27.905Z,6.1
2023-09-10T12:17:25.983Z,4.8
2023-09-10T12:19:24.120Z,5.3
2023-09-10T12:21:25.607Z,5
2023-09-10T12:23:23.829Z,4.9
2023-09-10T12:25:21.902Z,5.2
2023-09-10T12:29:18.186Z,4.7
2023-09-10T12:31:16.349Z,5.4
2023-09-10T12:33:14.457Z,4.8
2023-09-10T12:35:15.955Z,4.5
2023-09-10T12:37:14.102Z,4.7
2023-09-10T12:41:10.467Z,4.5
2023-09-10T12:45:06.751Z,4.9
2023-09-10T12:51:04.626Z,4
2023-09-10T12:53:02.853Z,4.6
2023-09-10T12:55:01.023Z,4.2
2023-09-10T12:56:59.194Z,4.3
2023-09-10T12:58:57.421Z,4.8
2023-09-10T13:02:57.217Z,5.1
2023-09-10T13:06:53.594Z,5.7
2023-09-10T13:07:54.374Z,4.7
2023-09-10T13:11:50.832Z,4.9
2023-09-10T13:13:49.062Z,4.2
2023-09-10T13:15:50.645Z,4.4
2023-09-10T13:17:49.066Z,4.5
2023-09-10T13:25:43.706Z,4.6
2023-09-10T13:27:40.140Z,4
2023-09-10T13:29:41.809Z,4.8
2023-09-10T13:31:40.015Z,4.7
2023-09-10T13:33:38.771Z,4.1
2023-09-10T13:35:36.620Z,4.5
2023-09-10T13:37:34.835Z,4.8
2023-09-10T13:39:33.111Z,4.2
2023-09-10T13:41:31.547Z,4.3
2023-09-10T13:43:33.008Z,4.9
2023-09-10T13:45:31.298Z,4.7
2023-09-10T13:47:29.613Z,4.8
2023-09-10T13:49:27.813Z,4.5
2023-09-10T13:51:26.117Z,4.5
2023-09-10T13:53:24.488Z,4.8
2023-09-10T13:55:22.689Z,5.7
2023-09-10T13:57:24.298Z,4.5
2023-09-10T13:59:22.615Z,5.9
2023-09-10T14:01:20.912Z,4.1
2023-09-10T14:03:34.789Z,4.9
2023-09-10T14:05:33.209Z,5
2023-09-10T14:07:31.314Z,4.7
2023-09-10T14:09:32.967Z,4.8
2023-09-10T14:13:29.528Z,4.2
2023-09-10T14:15:27.808Z,4.9
2023-09-10T14:17:26.129Z,5.1
2023-09-10T14:23:24.345Z,4
2023-09-10T14:25:22.642Z,4.4
2023-09-10T14:27:20.966Z,4.7
2023-09-10T14:29:19.315Z,4.6
2023-09-10T14:31:17.654Z,4.6
2023-09-10T14:33:16.020Z,4.7
2023-09-10T14:35:14.305Z,5.2
2023-09-10T14:37:15.956Z,5.2
2023-09-10T14:39:14.288Z,4.1
2023-09-10T14:41:12.681Z,4.7
2023-09-10T14:45:09.382Z,4.7
2023-09-10T14:47:07.739Z,4.9
2023-09-10T14:49:06.097Z,4.4
2023-09-10T14:53:06.219Z,4.9
2023-09-10T14:56:05.467Z,5.1
2023-09-10T15:00:02.328Z,4.4
2023-09-10T15:02:00.740Z,5.1
2023-09-10T15:04:02.546Z,4.9
2023-09-10T15:07:59.430Z,4.6
2023-09-10T15:11:56.053Z,5.5
2023-09-10T15:13:54.474Z,5.4
2023-09-10T15:15:52.971Z,4.7
2023-09-10T15:17:54.718Z,5.3
2023-09-10T15:31:47.311Z,4.7
2023-09-10T15:35:44.181Z,5
2023-09-10T15:37:42.664Z,5.3
2023-09-10T15:39:41.137Z,5.1
2023-09-10T15:41:39.753Z,4.5
2023-09-10T15:45:40.040Z,4.6
2023-09-10T15:47:38.726Z,4.7
2023-09-10T15:49:37.010Z,5.2
2023-09-10T15:50:37.981Z,5.3
2023-09-10T15:54:36.957Z,4.8
2023-09-10T16:06:29.893Z,4.6
2023-09-10T16:08:28.652Z,4.9
2023-09-10T16:10:27.129Z,5.2
2023-09-10T16:12:29.200Z,5
2023-09-10T16:14:27.932Z,5.3
2023-09-10T16:20:23.975Z,5.3
2023-09-10T16:28:22.127Z,5.2
2023-09-10T16:36:17.004Z,4.6
2023-09-10T16:38:15.767Z,5.9
2023-09-10T16:40:17.960Z,5.6
2023-09-10T16:45:16.514Z,5.6
2023-09-10T16:47:15.348Z,5.8
2023-09-10T16:49:14.055Z,5.1
2023-09-10T16:51:12.806Z,5.3
2023-09-10T16:53:14.999Z,5.9
2023-09-10T16:55:13.758Z,5.3
2023-09-10T16:57:12.528Z,5.2
2023-09-10T16:59:11.368Z,5.7
2023-09-10T17:07:09.918Z,5.1
2023-09-10T17:09:08.696Z,5.6
2023-09-10T17:11:07.550Z,5.3
2023-09-10T17:17:04.016Z,6.1
2023-09-10T17:19:02.844Z,5.8
2023-09-10T17:21:05.036Z,5.4
2023-09-10T17:23:03.902Z,4.9
2023-09-10T17:25:02.751Z,5
2023-09-10T17:27:01.606Z,5.7
2023-09-10T17:29:00.476Z,6.1
2023-09-10T17:30:59.403Z,5.9
2023-09-10T17:32:58.298Z,5.8
2023-09-10T17:35:00.550Z,6.3
2023-09-10T17:36:59.377Z,4.9
2023-09-10T17:38:58.270Z,6
2023-09-10T17:41:18.956Z,5.9
2023-09-10T17:43:17.792Z,6.1
2023-09-10T17:45:16.703Z,5.1
2023-09-10T17:47:20.524Z,7.4
2023-09-10T17:49:19.440Z,6.2
2023-09-10T17:51:20.490Z,5.4
2023-09-10T17:53:17.350Z,6.1
2023-09-10T17:55:16.272Z,5.3
2023-09-10T17:57:15.228Z,5.9
2023-09-10T17:59:14.285Z,5.5
2023-09-10T18:01:16.565Z,6.6
2023-09-10T18:11:11.462Z,5.6
2023-09-10T18:13:10.438Z,5.6
2023-09-10T18:15:12.814Z,6.6
2023-09-10T18:17:11.874Z,6.1
2023-09-10T18:19:10.882Z,7.9
2023-09-10T18:21:09.914Z,6.4
2023-09-10T18:23:08.993Z,6
2023-09-10T18:25:07.977Z,6.7
2023-09-10T18:27:07.019Z,6.9
2023-09-10T18:29:09.437Z,7.1
2023-09-10T18:31:08.527Z,6.9
2023-09-10T18:33:07.604Z,8.2
2023-09-10T18:54:02.547Z,7
2023-09-10T18:58:04.011Z,7.7
2023-09-10T19:02:02.111Z,8
2023-09-10T19:06:00.236Z,7.8
2023-09-10T19:07:59.300Z,7.5
2023-09-10T19:12:00.818Z,7.1
2023-09-10T19:13:59.884Z,8.3
2023-09-10T19:15:59.011Z,8
2023-09-10T19:17:58.126Z,7.7
2023-09-10T19:19:57.148Z,6.9
2023-09-10T19:25:57.788Z,7.1
2023-09-10T19:28:58.158Z,8.1
2023-09-10T19:30:57.264Z,8.7
2023-09-10T19:32:56.421Z,7.4
2023-09-10T19:34:55.464Z,6.9
2023-09-10T19:36:57.950Z,7.4
2023-09-10T19:38:57.072Z,8
2023-09-10T19:40:56.195Z,7.3
2023-09-10T19:42:55.322Z,6.9
2023-09-10T19:44:54.461Z,8.2
2023-09-10T19:46:53.608Z,8
2023-09-10T19:48:52.732Z,6.9
2023-09-10T19:50:55.229Z,8.3
2023-09-10T19:52:54.335Z,8.4
2023-09-10T19:55:07.284Z,7.2
2023-09-10T19:56:52.675Z,6.8
2023-09-10T19:58:51.778Z,7.5
2023-09-10T20:00:50.994Z,7.9
2023-09-10T20:04:52.729Z,7.9
2023-09-10T20:14:48.526Z,7.5
2023-09-10T20:18:50.201Z,9.2
2023-09-10T20:20:49.486Z,8.7
2023-09-10T20:27:48.230Z,7.9
2023-09-10T20:33:49.180Z,9.5
2023-09-10T20:35:48.400Z,10.9
2023-09-10T20:37:47.565Z,10
2023-09-10T20:39:46.776Z,10
2023-09-10T20:41:46.125Z,9.8
2023-09-10T20:47:47.050Z,11.1
2023-09-10T20:49:46.176Z,11.6
2023-09-10T20:53:44.979Z,10.5
2023-09-10T20:55:43.807Z,9.9
2023-09-10T20:57:43.003Z,9.8
2023-09-10T20:59:45.641Z,11.9
2023-09-10T21:01:44.866Z,10.3
2023-09-10T21:03:44.171Z,10.8
2023-09-10T21:11:41.083Z,10.8
2023-09-10T21:13:43.722Z,11.1
2023-09-10T21:15:42.730Z,10.6
2023-09-10T21:17:42.005Z,12.4
2023-09-10T21:20:00.589Z,12.4
2023-09-10T21:21:59.787Z,10.9
2023-09-10T21:26:01.667Z,12.5
2023-09-10T21:35:57.762Z,10.8
2023-09-10T21:39:59.594Z,12.3
2023-09-10T21:41:58.810Z,12.8
2023-09-10T21:43:58.062Z,13.6
2023-09-10T21:45:57.291Z,12.5
2023-09-10T21:51:54.976Z,11
2023-09-10T21:53:57.564Z,13.2
2023-09-10T21:55:56.823Z,11.5
2023-09-10T21:57:56.040Z,12.4
2023-09-10T21:59:55.283Z,13.3
2023-09-10T22:05:53.049Z,13.2
2023-09-10T22:07:55.610Z,13.9
2023-09-10T22:09:55.152Z,13.3
2023-09-10T22:11:54.127Z,12.6
2023-09-10T22:12:55.440Z,14.3
2023-09-10T22:14:54.674Z,15.6
2023-09-10T22:16:53.907Z,14.4
2023-09-10T22:18:53.181Z,15.1
2023-09-10T22:20:56.043Z,15.6
2023-09-10T22:22:55.044Z,15.9
2023-09-10T22:24:54.316Z,15.2
2023-09-10T22:26:53.609Z,16.3
2023-09-10T22:28:52.812Z,16.1
2023-09-10T22:34:53.955Z,16.5
2023-09-10T22:36:53.217Z,15.7
2023-09-10T22:38:52.558Z,16.6
2023-09-10T22:40:51.734Z,16.9
2023-09-10T22:46:49.534Z,15.7
2023-09-10T22:48:52.149Z,16.6
2023-09-10T22:52:50.680Z,14.9
2023-09-10T22:54:50.008Z,15.3
2023-09-10T22:56:49.290Z,16.3
2023-09-10T22:58:48.615Z,15.8
2023-09-10T23:00:47.758Z,15.8
2023-09-10T23:02:50.527Z,15.9
2023-09-10T23:04:49.679Z,16.6
2023-09-10T23:06:48.937Z,16.6
2023-09-10T23:07:50.236Z,15.9
2023-09-10T23:11:48.856Z,13.4
2023-09-10T23:13:48.077Z,14.2
2023-09-10T23:15:50.762Z,17.8
2023-09-10T23:17:50.062Z,14.6
2023-09-10T23:21:48.570Z,14.4
2023-09-10T23:23:47.872Z,12.7
2023-09-10T23:25:47.162Z,15.6
2023-09-10T23:27:46.418Z,14.9
2023-09-10T23:31:49.824Z,14
2023-09-10T23:35:48.438Z,14.2
2023-09-10T23:39:46.964Z,14.3
2023-09-10T23:49:46.748Z,14
2023-09-10T23:51:46.030Z,14
2023-09-10T23:53:45.408Z,15.1
2023-09-10T23:55:44.610Z,14.4
2023-09-10T23:57:47.241Z,16.3
2023-09-10T23:59:46.552Z,14.6
